Time;durP1;ratioP1;P1;durP2;ratioP2;P2;SDS_P1;SDS_P2;PMS_P1;PMS_P2;Temp;Humidity;BMP_temperature;BMP_pressure;BME280_temperature;BME280_humidity;BME280_pressure;Samples;Min_cycle;Max_cycle;Signal;HPM_P1;HPM_P2
2022/03/14 00:01:55;;;;;;;12.77;8.70;;;;;;;1.39;54.03;98401.69;6075478;23;20177;-88
2022/03/14 00:04:23;;;;;;;11.13;7.27;;;;;;;1.40;53.90;98408.50;6075084;23;20294;-86
2022/03/14 00:06:51;;;;;;;14.73;8.50;;;;;;;1.45;54.71;98401.78;6092856;23;20201;-88
2022/03/14 00:09:19;;;;;;;12.87;7.53;;;;;;;1.73;53.60;98433.59;6094546;23;20728;-88
2022/03/14 00:11:51;;;;;;;11.70;7.60;;;;;;;1.62;53.10;98433.47;6095810;23;20169;-87
2022/03/14 00:14:19;;;;;;;13.67;8.87;;;;;;;1.69;53.16;98442.03;6066658;23;20188;-86
2022/03/14 00:16:46;;;;;;;12.10;8.27;;;;;;;1.58;53.69;98418.94;6092146;23;20165;-88
2022/03/14 00:19:14;;;;;;;15.30;8.57;;;;;;;1.74;53.90;98416.53;6091398;23;20235;-89
2022/03/14 00:21:41;;;;;;;13.27;8.93;;;;;;;1.93;53.59;98444.88;6092994;23;20176;-88
2022/03/14 00:24:11;;;;;;;15.97;8.30;;;;;;;1.92;52.85;98432.06;6092233;23;20223;-87
2022/03/14 00:26:39;;;;;;;15.00;8.90;;;;;;;1.89;53.00;98434.59;6119092;23;20167;-87
2022/03/14 00:29:08;;;;;;;15.23;8.80;;;;;;;1.96;52.74;98441.50;6144460;23;20176;-88
2022/03/14 00:31:36;;;;;;;14.37;8.00;;;;;;;1.92;53.21;98439.72;6119818;23;20188;-87
2022/03/14 00:34:03;;;;;;;14.67;8.90;;;;;;;1.82;53.18;98432.81;6098911;23;20179;-86
2022/03/14 00:36:32;;;;;;;13.80;8.10;;;;;;;1.82;53.24;98433.66;6091026;23;20173;-87
2022/03/14 00:38:59;;;;;;;12.33;8.23;;;;;;;1.93;53.70;98426.13;6092250;23;20236;-87
2022/03/14 00:41:26;;;;;;;15.37;8.47;;;;;;;2.01;52.55;98430.47;6090095;23;20176;-87
2022/03/14 00:43:53;;;;;;;14.03;8.87;;;;;;;2.08;52.57;98447.56;6089876;23;20547;-87
2022/03/14 00:46:20;;;;;;;16.20;8.77;;;;;;;2.12;53.81;98453.56;6091498;23;20251;-86
2022/03/14 00:48:48;;;;;;;16.20;9.53;;;;;;;2.22;53.05;98455.38;6089780;23;20224;-86
2022/03/14 00:51:15;;;;;;;16.37;9.67;;;;;;;2.12;53.03;98430.56;6090444;23;20169;-87
2022/03/14 00:53:42;;;;;;;19.37;11.77;;;;;;;2.02;53.58;98428.78;6091512;23;20172;-91
2022/03/14 00:56:10;;;;;;;21.03;12.37;;;;;;;2.10;55.70;98445.03;6091999;23;20164;-87
2022/03/14 00:58:39;;;;;;;20.83;12.97;;;;;;;1.85;57.42;98407.31;6090030;23;20536;-87
2022/03/14 01:01:07;;;;;;;24.97;13.60;;;;;;;1.96;57.29;98421.06;6090626;23;20256;-90
2022/03/14 01:03:36;;;;;;;27.40;14.50;;;;;;;2.02;58.33;98454.31;6091447;23;20204;-89
2022/03/14 01:06:04;;;;;;;24.03;14.20;;;;;;;1.86;57.24;98426.88;6089823;23;20504;-88
2022/03/14 01:08:31;;;;;;;24.60;15.00;;;;;;;1.82;57.81;98441.31;6089770;23;20255;-88
2022/03/14 01:11:00;;;;;;;24.60;14.13;;;;;;;1.88;58.52;98453.28;6090080;23;20238;-90
2022/03/14 01:13:30;;;;;;;28.10;14.73;;;;;;;1.80;57.49;98440.44;6063714;23;20173;-88
2022/03/14 01:16:01;;;;;;;23.40;12.33;;;;;;;1.79;58.20;98443.88;6121496;23;20175;-89
2022/03/14 01:18:28;;;;;;;23.67;12.23;;;;;;;1.77;57.86;98429.34;6119986;23;20195;-92
2022/03/14 01:20:56;;;;;;;20.73;11.70;;;;;;;1.91;58.59;98458.44;6094493;23;20168;-87
2022/03/14 01:23:23;;;;;;;21.83;12.00;;;;;;;1.67;58.58;98418.16;6119349;23;20172;-87
2022/03/14 01:25:51;;;;;;;19.77;11.67;;;;;;;1.90;58.76;98446.50;6094684;23;20277;-92
2022/03/14 01:28:18;;;;;;;16.50;10.43;;;;;;;1.91;58.56;98451.66;6121759;23;20164;-92
2022/03/14 01:30:45;;;;;;;16.40;10.20;;;;;;;1.81;58.06;98437.06;6121453;23;20628;-88
2022/03/14 01:33:13;;;;;;;17.70;10.50;;;;;;;2.02;58.80;98467.09;6124337;23;20175;-92
2022/03/14 01:35:41;;;;;;;15.20;9.37;;;;;;;1.91;58.60;98438.03;6125380;23;20175;-87
2022/03/14 01:38:10;;;;;;;13.17;8.40;;;;;;;1.99;58.38;98446.63;6120176;23;20572;-88
2022/03/14 01:40:38;;;;;;;18.87;9.63;;;;;;;2.08;58.71;98468.00;6095599;23;20175;-91
2022/03/14 01:43:05;;;;;;;15.63;10.23;;;;;;;2.00;57.96;98463.66;6120162;23;20170;-90
2022/03/14 01:45:32;;;;;;;16.10;10.73;;;;;;;2.00;58.76;98454.28;6119291;23;20215;-88
2022/03/14 01:47:59;;;;;;;19.63;11.37;;;;;;;1.90;58.93;98454.16;6119188;23;20231;-87
2022/03/14 01:50:27;;;;;;;19.13;11.13;;;;;;;1.77;59.53;98460.00;6121427;23;20312;-87
2022/03/14 01:52:54;;;;;;;19.30;10.50;;;;;;;1.50;60.29;98435.00;6119814;23;20175;-87
2022/03/14 01:55:25;;;;;;;25.33;13.37;;;;;;;1.32;59.91;98460.31;6126062;23;20168;-85
2022/03/14 01:57:55;;;;;;;25.30;14.50;;;;;;;1.30;59.40;98470.47;6125246;23;20172;-86
2022/03/14 02:00:23;;;;;;;26.97;13.90;;;;;;;1.20;59.90;98481.38;6122210;23;20703;-86
2022/03/14 02:02:50;;;;;;;27.73;13.67;;;;;;;1.19;59.81;98458.41;6121260;23;20286;-87
2022/03/14 02:05:23;;;;;;;22.17;12.83;;;;;;;1.00;58.57;98453.88;6125811;23;20267;-86
2022/03/14 02:07:51;;;;;;;21.13;13.53;;;;;;;1.18;58.84;98466.88;6130281;23;20629;-85
2022/03/14 02:10:18;;;;;;;31.43;18.03;;;;;;;1.27;58.14;98475.53;6128764;23;20642;-87
2022/03/14 02:12:45;;;;;;;21.63;12.37;;;;;;;1.27;57.94;98469.56;6125384;23;20167;-86
2022/03/14 02:15:13;;;;;;;16.77;10.43;;;;;;;1.08;57.76;98470.16;6128721;23;20168;-88
2022/03/14 02:17:41;;;;;;;17.43;9.93;;;;;;;1.25;58.20;98500.19;6123895;23;20164;-88
2022/03/14 02:20:09;;;;;;;16.43;9.93;;;;;;;1.13;56.73;98502.56;6121482;23;20168;-88
2022/03/14 02:22:37;;;;;;;18.90;10.40;;;;;;;1.20;57.81;98511.13;6123135;23;20236;-90
2022/03/14 02:25:14;;;;;;;19.17;10.43;;;;;;;1.33;57.38;98513.91;6120457;23;20742;-86
2022/03/14 02:27:42;;;;;;;23.30;10.80;;;;;;;1.32;58.16;98501.97;6118573;23;20164;-87
2022/03/14 02:30:10;;;;;;;20.43;11.83;;;;;;;1.31;57.69;98482.41;6117546;23;20187;-87
2022/03/14 02:32:43;;;;;;;22.17;12.50;;;;;;;1.47;57.39;98493.66;6119614;23;20164;-86
2022/03/14 02:35:11;;;;;;;22.90;11.87;;;;;;;1.56;57.52;98515.06;6118027;23;20611;-88
2022/03/14 02:37:39;;;;;;;30.57;15.00;;;;;;;1.70;58.09;98524.59;6118679;23;20627;-87
2022/03/14 02:40:08;;;;;;;28.03;15.40;;;;;;;1.70;58.46;98505.03;6118379;23;20168;-89
2022/03/14 02:42:37;;;;;;;24.40;13.60;;;;;;;1.67;58.03;98510.94;6118832;23;20172;-89
2022/03/14 02:45:04;;;;;;;22.67;13.60;;;;;;;1.64;58.01;98515.16;6121640;23;20199;-88
2022/03/14 02:47:32;;;;;;;20.37;12.60;;;;;;;1.54;58.29;98518.44;6097553;23;20172;-90
2022/03/14 02:50:01;;;;;;;19.67;12.37;;;;;;;1.45;58.06;98508.09;6120689;23;20172;-90
2022/03/14 02:52:29;;;;;;;19.47;12.00;;;;;;;1.59;57.95;98537.22;6118921;23;20192;-90
2022/03/14 02:54:57;;;;;;;22.90;12.43;;;;;;;1.16;58.09;98459.22;6118792;23;20608;-89
2022/03/14 02:57:25;;;;;;;26.77;14.33;;;;;;;1.63;57.72;98539.81;6120249;23;20175;-90
2022/03/14 02:59:52;;;;;;;26.07;14.73;;;;;;;1.17;59.12;98466.06;6094317;23;20577;-92
2022/03/14 03:02:22;;;;;;;22.03;13.40;;;;;;;1.53;58.83;98535.44;6120685;23;20176;-87
2022/03/14 03:04:50;;;;;;;23.70;13.17;;;;;;;1.46;58.49;98507.28;6119335;23;20683;-87
2022/03/14 03:07:20;;;;;;;19.67;14.07;;;;;;;1.59;59.34;98540.63;6119058;23;20176;-91
2022/03/14 03:09:47;;;;;;;24.03;14.57;;;;;;;1.48;60.03;98543.88;6119217;23;20175;-88
2022/03/14 03:12:15;;;;;;;24.37;14.33;;;;;;;1.40;60.04;98525.88;6120710;23;20172;-92
2022/03/14 03:14:42;;;;;;;24.60;14.60;;;;;;;1.52;59.20;98548.19;6119195;23;20202;-92
2022/03/14 03:17:09;;;;;;;20.80;13.53;;;;;;;1.01;60.97;98532.97;6120808;23;20168;-86
2022/03/14 03:19:36;;;;;;;16.43;10.83;;;;;;;1.07;62.36;98547.53;6120975;23;20164;-87
2022/03/14 03:22:03;;;;;;;23.40;14.27;;;;;;;0.79;62.04;98528.34;6122753;23;20164;-92
2022/03/14 03:24:32;;;;;;;23.30;13.43;;;;;;;0.89;62.25;98519.19;6123318;23;20203;-89
2022/03/14 03:26:59;;;;;;;20.17;13.90;;;;;;;0.64;61.82;98500.06;6120239;23;20172;-88
2022/03/14 03:29:28;;;;;;;23.07;14.00;;;;;;;0.99;61.43;98565.22;6122064;23;20176;-87
2022/03/14 03:31:57;;;;;;;25.03;16.17;;;;;;;0.61;60.68;98498.34;6096624;23;20199;-86
2022/03/14 03:34:25;;;;;;;24.20;15.57;;;;;;;1.03;60.55;98545.75;6122055;23;20227;-87
2022/03/14 03:36:52;;;;;;;18.83;13.97;;;;;;;1.13;59.73;98540.81;6126698;23;20176;-86
2022/03/14 03:39:20;;;;;;;21.00;13.20;;;;;;;1.30;60.11;98577.63;6128328;23;20168;-87
2022/03/14 03:41:47;;;;;;;20.67;13.17;;;;;;;1.35;59.50;98570.06;6129965;23;20168;-88
2022/03/14 03:44:15;;;;;;;22.10;13.47;;;;;;;1.31;59.22;98535.97;6102160;23;20178;-87
2022/03/14 03:46:47;;;;;;;20.97;13.43;;;;;;;1.65;59.12;98579.00;6128482;23;20215;-87
2022/03/14 03:49:14;;;;;;;25.10;15.77;;;;;;;1.60;57.85;98569.56;6127879;23;20247;-89
2022/03/14 03:51:43;;;;;;;19.40;13.47;;;;;;;1.57;58.85;98572.06;6121622;23;20203;-87
2022/03/14 03:54:50;;;;;;;22.67;14.53;;;;;;;1.70;59.21;98590.97;6186708;23;20217;-81
2022/03/14 03:58:11;;;;;;;18.30;13.20;;;;;;;1.67;59.25;98601.97;6230792;22;20203;-79
2022/03/14 04:01:32;;;;;;;26.30;15.07;;;;;;;1.59;59.16;98594.22;6270765;22;20164;-86
2022/03/14 04:04:53;;;;;;;22.27;14.47;;;;;;;1.64;59.47;98596.84;6243873;22;20176;-84
2022/03/14 04:08:13;;;;;;;21.50;14.40;;;;;;;1.72;59.48;98589.28;6244706;22;20210;-87
2022/03/14 04:11:37;;;;;;;20.47;13.67;;;;;;;1.73;59.64;98596.13;6248298;22;20168;-81
2022/03/14 04:14:58;;;;;;;20.20;12.50;;;;;;;1.67;59.98;98607.97;6243806;22;20247;-84
2022/03/14 04:18:18;;;;;;;20.37;13.23;;;;;;;1.62;59.13;98609.59;6270896;22;20227;-85
2022/03/14 04:21:40;;;;;;;20.00;12.20;;;;;;;1.52;59.92;98610.31;6271588;22;20169;-85
2022/03/14 04:24:21;;;;;;;19.67;11.90;;;;;;;0.98;60.25;98524.41;6244891;22;20179;-86
2022/03/14 04:26:48;;;;;;;19.93;12.40;;;;;;;1.31;59.74;98589.56;6272184;22;20167;-84
2022/03/14 04:29:17;;;;;;;18.03;12.87;;;;;;;1.27;60.39;98577.59;6220864;22;20718;-83
2022/03/14 04:31:45;;;;;;;20.47;12.33;;;;;;;1.33;60.61;98595.56;6244518;22;20785;-85
2022/03/14 04:34:12;;;;;;;19.33;12.53;;;;;;;1.54;60.76;98626.50;6245490;22;20176;-85
2022/03/14 04:36:40;;;;;;;19.67;13.07;;;;;;;1.41;61.25;98609.28;6245695;22;20161;-82
2022/03/14 04:39:08;;;;;;;23.37;13.47;;;;;;;1.49;59.80;98612.81;6272289;22;20187;-79
2022/03/14 04:41:37;;;;;;;20.80;12.80;;;;;;;1.19;61.13;98561.31;6273316;22;20164;-79
2022/03/14 04:44:05;;;;;;;19.73;13.40;;;;;;;1.67;60.99;98623.28;6244303;22;20203;-84
2022/03/14 04:46:32;;;;;;;19.73;13.10;;;;;;;1.50;59.83;98589.00;6273077;22;20648;-82
2022/03/14 04:49:00;;;;;;;29.57;15.27;;;;;;;1.58;60.00;98592.53;6271605;22;20168;-81
2022/03/14 04:51:28;;;;;;;22.70;13.60;;;;;;;1.40;59.83;98551.41;6245766;22;20654;-86
2022/03/14 04:53:55;;;;;;;23.63;14.03;;;;;;;1.79;60.12;98603.88;6240046;23;20195;-80
2022/03/14 04:56:22;;;;;;;24.43;13.20;;;;;;;2.03;60.01;98638.25;6239971;23;20519;-82
2022/03/14 04:58:50;;;;;;;23.13;12.27;;;;;;;2.07;60.57;98641.72;6259907;22;20168;-78
2022/03/14 05:01:23;;;;;;;16.80;10.07;;;;;;;2.12;60.38;98637.53;6271399;22;20243;-80
2022/03/14 05:03:52;;;;;;;21.77;10.23;;;;;;;1.74;61.08;98614.00;6272282;22;20161;-83
2022/03/14 05:06:19;;;;;;;18.07;10.70;;;;;;;1.67;60.95;98600.31;6271482;22;20227;-81
2022/03/14 05:08:47;;;;;;;18.20;10.27;;;;;;;2.02;61.38;98653.56;6272455;22;20184;-81
2022/03/14 05:11:14;;;;;;;16.27;10.60;;;;;;;1.82;61.63;98621.78;6246418;22;20243;-82
2022/03/14 05:13:41;;;;;;;19.27;10.80;;;;;;;1.96;61.66;98666.28;6274244;22;20167;-83
2022/03/14 05:16:08;;;;;;;21.07;11.50;;;;;;;1.67;61.32;98620.72;6222247;22;20179;-84
2022/03/14 05:18:36;;;;;;;21.87;11.43;;;;;;;1.74;61.24;98643.78;6245497;22;20157;-85
2022/03/14 05:21:04;;;;;;;14.20;9.50;;;;;;;1.92;60.48;98674.69;6272379;22;20587;-83
2022/03/14 05:23:31;;;;;;;16.40;9.93;;;;;;;1.80;60.06;98629.41;6271053;22;20161;-82
2022/03/14 05:26:01;;;;;;;21.67;10.00;;;;;;;2.09;60.86;98670.69;6246149;22;20200;-80
2022/03/14 05:28:28;;;;;;;16.50;10.40;;;;;;;1.84;60.18;98653.28;6271810;22;20173;-79
2022/03/14 05:30:56;;;;;;;23.63;10.70;;;;;;;1.71;60.56;98618.22;6271950;22;20579;-80
2022/03/14 05:33:24;;;;;;;20.07;11.57;;;;;;;1.71;59.87;98624.16;6271753;22;20157;-82
2022/03/14 05:35:52;;;;;;;23.57;11.87;;;;;;;2.02;59.99;98651.84;6271178;22;20218;-79
2022/03/14 05:38:19;;;;;;;31.50;13.33;;;;;;;2.47;60.14;98677.16;6272247;22;20164;-80
2022/03/14 05:40:46;;;;;;;30.60;13.80;;;;;;;2.56;58.96;98677.25;6244059;22;20529;-82
2022/03/14 05:43:13;;;;;;;30.37;15.23;;;;;;;2.46;58.85;98617.50;6272045;22;20190;-79
2022/03/14 05:45:40;;;;;;;33.43;14.87;;;;;;;2.26;57.65;98574.66;6270772;22;20202;-85
2022/03/14 05:48:09;;;;;;;36.07;14.43;;;;;;;2.93;58.25;98679.38;6245434;22;20506;-81
2022/03/14 05:50:36;;;;;;;26.07;14.30;;;;;;;2.87;57.54;98643.50;6271734;22;20166;-87
2022/03/14 05:53:04;;;;;;;31.73;15.10;;;;;;;3.10;56.62;98661.63;6271299;22;20156;-78
2022/03/14 05:55:31;;;;;;;29.97;15.63;;;;;;;3.00;57.41;98649.59;6244927;22;20191;-84
2022/03/14 05:57:59;;;;;;;36.67;16.60;;;;;;;3.18;56.15;98639.53;6218375;22;20179;-82
2022/03/14 06:00:26;;;;;;;30.13;15.77;;;;;;;3.47;56.42;98698.66;6272278;22;20251;-84
2022/03/14 06:02:53;;;;;;;26.90;14.17;;;;;;;3.72;56.11;98708.28;6283732;22;20157;-89
2022/03/14 06:05:22;;;;;;;23.03;12.53;;;;;;;3.76;54.92;98710.88;6273722;22;20190;-89
2022/03/14 06:07:50;;;;;;;24.20;12.10;;;;;;;3.38;55.08;98657.63;6222970;22;20169;-82
2022/03/14 06:10:17;;;;;;;27.87;12.77;;;;;;;3.28;54.93;98665.22;6297395;22;20168;-85
2022/03/14 06:12:47;;;;;;;26.20;12.83;;;;;;;3.16;56.23;98670.25;6275090;22;20159;-81
2022/03/14 06:15:16;;;;;;;25.37;12.20;;;;;;;3.15;56.18;98686.41;6266073;22;20175;-83
2022/03/14 06:17:44;;;;;;;18.63;10.60;;;;;;;3.09;55.88;98686.38;6276218;22;20220;-85
2022/03/14 06:20:13;;;;;;;25.63;11.40;;;;;;;3.20;55.90;98689.03;6276931;22;20169;-85
2022/03/14 06:22:42;;;;;;;21.20;10.90;;;;;;;3.16;55.48;98693.28;6276552;22;20191;-83
2022/03/14 06:25:10;;;;;;;27.77;10.83;;;;;;;3.45;55.23;98726.81;6244973;22;20200;-79
2022/03/14 06:27:38;;;;;;;26.70;12.27;;;;;;;3.32;54.86;98696.00;6277043;22;20237;-83
2022/03/14 06:30:06;;;;;;;24.17;11.87;;;;;;;3.56;54.48;98727.78;6249742;22;20176;-84
2022/03/14 06:32:39;;;;;;;25.13;12.80;;;;;;;3.80;54.05;98732.25;6250401;22;20559;-83
2022/03/14 06:35:16;;;;;;;20.63;11.10;;;;;;;3.95;52.75;98727.25;6277504;22;20158;-83
2022/03/14 06:37:44;;;;;;;22.80;11.23;;;;;;;3.94;52.25;98689.63;6276515;22;20170;-87
2022/03/14 06:40:12;;;;;;;18.17;10.40;;;;;;;4.23;50.19;98741.94;6250136;22;20169;-85
2022/03/14 06:42:41;;;;;;;12.07;7.33;;;;;;;4.14;49.51;98691.47;6276758;22;20172;-81
2022/03/14 06:45:11;;;;;;;14.23;7.77;;;;;;;4.28;47.62;98724.91;6276263;22;20618;-83
2022/03/14 06:47:41;;;;;;;18.90;8.57;;;;;;;4.58;48.38;98737.00;6250310;22;20252;-82
2022/03/14 06:50:10;;;;;;;16.23;9.10;;;;;;;4.42;48.14;98713.00;6245187;22;20490;-81
2022/03/14 06:52:41;;;;;;;11.57;6.93;;;;;;;4.41;45.90;98731.81;6273491;22;20164;-81
2022/03/14 06:55:10;;;;;;;8.00;5.33;;;;;;;4.22;43.41;98729.13;6272821;22;20188;-82
2022/03/14 06:57:40;;;;;;;11.23;5.43;;;;;;;3.99;43.80;98711.91;6273726;22;20156;-82
2022/03/14 07:00:08;;;;;;;6.60;4.87;;;;;;;4.21;42.71;98750.47;6221086;22;20506;-81
2022/03/14 07:02:38;;;;;;;9.00;4.83;;;;;;;4.07;42.66;98711.94;6271946;22;20236;-82
2022/03/14 07:05:07;;;;;;;7.70;4.87;;;;;;;4.14;43.57;98722.25;6245838;22;20173;-82
2022/03/14 07:07:34;;;;;;;9.30;5.97;;;;;;;4.16;43.17;98729.97;6276586;22;20214;-82
2022/03/14 07:10:01;;;;;;;10.33;5.47;;;;;;;4.19;42.51;98732.53;6222786;22;20169;-82
2022/03/14 07:12:39;;;;;;;12.17;6.03;;;;;;;4.00;42.54;98718.72;6273770;22;20257;-85
2022/03/14 07:15:06;;;;;;;11.43;6.33;;;;;;;4.18;45.83;98763.28;6272824;22;20169;-83
2022/03/14 07:17:33;;;;;;;12.97;5.73;;;;;;;3.89;45.49;98740.00;6271298;22;20175;-82
2022/03/14 07:20:00;;;;;;;9.83;6.93;;;;;;;4.05;45.55;98767.47;6271634;22;20166;-84
2022/03/14 07:22:32;;;;;;;8.03;4.80;;;;;;;3.75;43.32;98751.84;6244213;22;20636;-87
2022/03/14 07:25:00;;;;;;;7.30;4.87;;;;;;;3.59;43.49;98757.66;6270863;22;20164;-87
2022/03/14 07:27:28;;;;;;;6.83;4.50;;;;;;;3.36;43.59;98742.09;6244179;22;20173;-79
2022/03/14 07:29:55;;;;;;;10.70;6.43;;;;;;;3.89;43.53;98755.38;6270064;22;20164;-83
2022/03/14 07:32:22;;;;;;;6.27;4.93;;;;;;;4.28;42.19;98783.88;6271562;22;20164;-81
2022/03/14 07:34:51;;;;;;;19.20;9.03;;;;;;;4.32;41.86;98757.41;6243914;22;20203;-79
2022/03/14 07:37:18;;;;;;;12.37;6.10;;;;;;;4.21;41.91;98743.66;6271236;22;20169;-79
2022/03/14 07:39:45;;;;;;;12.50;6.97;;;;;;;4.22;41.79;98732.56;6219459;22;20634;-89
2022/03/14 07:42:15;;;;;;;7.60;4.93;;;;;;;4.57;41.03;98790.06;6270606;22;20180;-81
2022/03/14 07:44:42;;;;;;;8.27;5.10;;;;;;;4.63;40.92;98764.44;6194124;22;20215;-84
2022/03/14 07:47:10;;;;;;;7.63;5.00;;;;;;;4.76;40.68;98750.78;6242566;22;20675;-79
2022/03/14 07:49:37;;;;;;;9.37;6.07;;;;;;;4.65;40.61;98739.63;6271525;22;20572;-81
2022/03/14 07:52:05;;;;;;;14.07;6.20;;;;;;;4.74;40.29;98757.63;6248992;22;20166;-81
2022/03/14 07:54:33;;;;;;;13.50;7.70;;;;;;;4.56;40.48;98765.25;6232395;22;20201;-82
2022/03/14 07:57:00;;;;;;;9.63;6.27;;;;;;;4.55;40.56;98762.66;6232272;22;20171;-78
2022/03/14 07:59:27;;;;;;;7.53;4.90;;;;;;;4.79;39.89;98744.81;6258436;22;20618;-80
2022/03/14 08:01:54;;;;;;;9.10;4.87;;;;;;;4.79;40.53;98753.38;6283557;22;20166;-80
2022/03/14 08:04:23;;;;;;;14.70;7.53;;;;;;;4.89;39.95;98773.09;6282399;22;20170;-81
2022/03/14 08:06:51;;;;;;;18.03;8.40;;;;;;;5.17;40.94;98793.75;6279514;22;20207;-85
2022/03/14 08:09:21;;;;;;;8.60;4.80;;;;;;;4.66;40.29;98731.06;6244265;22;20173;-80
2022/03/14 08:11:49;;;;;;;8.27;5.77;;;;;;;4.99;40.70;98778.28;6274244;22;20174;-80
2022/03/14 08:14:17;;;;;;;10.23;6.17;;;;;;;5.05;40.09;98768.03;6273157;22;21127;-78
2022/03/14 08:16:44;;;;;;;8.43;5.53;;;;;;;5.02;39.62;98743.22;6220791;22;20162;-78
2022/03/14 08:19:12;;;;;;;8.97;5.97;;;;;;;5.33;39.81;98798.94;6246487;22;20254;-82
2022/03/14 08:21:40;;;;;;;10.53;6.30;;;;;;;5.50;39.22;98799.81;6272905;22;20265;-81
2022/03/14 08:24:07;;;;;;;8.17;4.67;;;;;;;5.37;38.54;98812.66;6246782;22;20641;-78
2022/03/14 08:26:38;;;;;;;9.67;5.37;;;;;;;4.85;39.83;98776.50;6244377;22;20199;-82
2022/03/14 08:29:10;;;;;;;8.50;5.40;;;;;;;4.68;40.01;98792.66;6221482;22;20165;-79
2022/03/14 08:31:37;;;;;;;5.80;3.73;;;;;;;4.33;40.08;98753.16;6245429;22;20622;-77
2022/03/14 08:34:06;;;;;;;7.80;4.87;;;;;;;4.75;40.17;98807.25;6245827;22;20197;-80
2022/03/14 08:36:36;;;;;;;6.60;4.27;;;;;;;4.75;39.80;98808.13;6246992;22;20176;-77
2022/03/14 08:39:04;;;;;;;5.63;4.63;;;;;;;4.70;39.95;98773.84;6244491;22;20184;-83
2022/03/14 08:41:31;;;;;;;5.43;3.93;;;;;;;4.40;40.09;98786.53;6245320;22;20668;-83
2022/03/14 08:44:00;;;;;;;5.67;4.00;;;;;;;4.53;40.23;98772.94;6271717;22;20166;-81
2022/03/14 08:46:27;;;;;;;8.03;4.20;;;;;;;5.12;39.29;98765.50;6245233;22;20256;-82
2022/03/14 08:48:55;;;;;;;8.57;4.57;;;;;;;5.14;39.49;98817.69;6222448;22;20233;-78
2022/03/14 08:51:23;;;;;;;8.23;4.33;;;;;;;4.97;39.84;98826.19;6251045;22;20232;-79
2022/03/14 08:53:52;;;;;;;5.60;4.13;;;;;;;4.96;39.82;98817.63;6273014;22;20211;-79
2022/03/14 08:56:21;;;;;;;5.93;4.37;;;;;;;4.91;40.78;98817.59;6246525;22;20181;-80
2022/03/14 08:58:49;;;;;;;6.00;3.77;;;;;;;4.48;40.77;98800.25;6272604;22;20233;-80
2022/03/14 09:01:17;;;;;;;8.63;5.20;;;;;;;4.66;41.60;98790.09;6243889;22;20169;-77
2022/03/14 09:03:44;;;;;;;9.90;5.87;;;;;;;5.35;40.70;98830.63;6245841;22;20168;-80
2022/03/14 09:06:11;;;;;;;10.57;5.17;;;;;;;5.48;40.15;98780.97;6271763;22;20195;-78
2022/03/14 09:08:39;;;;;;;6.63;3.53;;;;;;;4.97;40.25;98815.06;6272588;22;20219;-80
2022/03/14 09:11:07;;;;;;;7.77;4.80;;;;;;;4.97;40.07;98823.63;6272310;22;20521;-82
2022/03/14 09:13:35;;;;;;;8.63;5.20;;;;;;;4.87;39.88;98740.56;6244601;22;20257;-80
2022/03/14 09:16:05;;;;;;;10.03;4.90;;;;;;;4.83;40.87;98791.03;6271932;22;20222;-80
2022/03/14 09:18:33;;;;;;;8.40;4.60;;;;;;;4.69;41.01;98767.03;6272434;22;20165;-79
2022/03/14 09:21:01;;;;;;;7.47;4.77;;;;;;;5.21;40.86;98831.44;6245136;22;20161;-79
2022/03/14 09:23:28;;;;;;;9.00;5.20;;;;;;;4.96;40.94;98774.00;6243118;22;20528;-82
2022/03/14 09:25:56;;;;;;;5.50;4.67;;;;;;;5.29;40.98;98829.75;6272255;22;20703;-79
2022/03/14 09:28:25;;;;;;;11.07;5.40;;;;;;;4.76;41.51;98814.13;6269784;22;20245;-78
2022/03/14 09:30:53;;;;;;;10.30;5.63;;;;;;;4.95;41.75;98834.72;6271796;22;20165;-82
2022/03/14 09:33:22;;;;;;;9.50;6.40;;;;;;;5.39;41.14;98822.09;6272055;22;20193;-78
2022/03/14 09:35:50;;;;;;;8.33;5.50;;;;;;;5.40;40.61;98794.69;6271734;22;20190;-84
2022/03/14 09:38:18;;;;;;;7.00;3.77;;;;;;;4.73;40.78;98843.16;6219702;22;20717;-78
2022/03/14 09:40:46;;;;;;;7.80;4.53;;;;;;;4.86;41.56;98824.41;6218563;22;20256;-79
2022/03/14 09:43:17;;;;;;;6.00;4.40;;;;;;;4.73;40.92;98799.56;6272520;22;20170;-82
2022/03/14 09:45:48;;;;;;;8.13;4.77;;;;;;;5.15;40.66;98791.19;6270834;22;20167;-79
2022/03/14 09:48:16;;;;;;;5.40;4.00;;;;;;;4.75;40.07;98774.75;6271646;22;20163;-79
2022/03/14 09:50:45;;;;;;;6.47;4.40;;;;;;;5.11;41.49;98834.81;6271742;22;20168;-78
2022/03/14 09:53:15;;;;;;;10.07;5.70;;;;;;;4.82;40.61;98760.25;6271350;22;20205;-88
2022/03/14 09:55:45;;;;;;;7.00;4.50;;;;;;;5.16;41.22;98822.84;6271930;22;20189;-78
2022/03/14 09:58:20;;;;;;;7.83;5.33;;;;;;;5.26;40.04;98788.63;6243838;22;20164;-81
2022/03/14 10:00:49;;;;;;;5.87;4.03;;;;;;;4.94;40.37;98791.97;6272086;22;20171;-82
2022/03/14 10:03:22;;;;;;;8.40;4.70;;;;;;;5.08;41.23;98827.09;6271140;22;20245;-77
2022/03/14 10:05:51;;;;;;;11.27;5.70;;;;;;;4.69;41.41;98796.94;6244569;22;20199;-82
2022/03/14 10:08:18;;;;;;;9.27;5.43;;;;;;;5.28;41.30;98840.84;6244314;22;20181;-78
2022/03/14 10:10:45;;;;;;;4.47;3.80;;;;;;;5.43;40.00;98839.22;6244547;22;20541;-83
2022/03/14 10:13:33;;;;;;;6.73;4.67;;;;;;;5.68;39.53;98810.16;6245022;22;20159;-79
2022/03/14 10:16:00;;;;;;;9.23;5.17;;;;;;;5.28;40.02;98792.06;6271902;22;20163;-84
2022/03/14 10:18:28;;;;;;;8.53;4.73;;;;;;;5.12;39.70;98785.16;6272574;22;20638;-82
2022/03/14 10:21:05;;;;;;;7.83;5.27;;;;;;;5.51;39.95;98842.66;6246470;22;20241;-80
2022/03/14 10:23:46;;;;;;;6.40;3.83;;;;;;;5.24;39.46;98814.31;6278120;22;20233;-87
2022/03/14 10:26:18;;;;;;;7.60;5.40;;;;;;;5.48;39.66;98783.56;6273270;22;20193;-88
2022/03/14 10:28:49;;;;;;;5.80;4.47;;;;;;;5.64;38.96;98816.16;6237853;22;20167;-82
2022/03/14 10:31:38;;;;;;;7.93;5.80;;;;;;;6.15;38.60;98807.66;6263758;22;20163;-82
2022/03/14 10:34:11;;;;;;;6.67;4.63;;;;;;;5.53;38.54;98781.00;6276195;22;20254;-79
2022/03/14 10:36:51;;;;;;;6.30;4.70;;;;;;;5.91;38.53;98801.66;6219990;22;20258;-81
2022/03/14 10:39:28;;;;;;;6.27;3.77;;;;;;;5.64;38.52;98818.72;6245652;22;20178;-79
2022/03/14 10:42:07;;;;;;;6.50;4.73;;;;;;;5.57;38.86;98810.97;6271186;22;20169;-85
2022/03/14 10:44:51;;;;;;;16.13;8.90;;;;;;;5.74;38.85;98806.75;6220298;22;20170;-80
2022/03/14 10:47:19;;;;;;;8.90;5.90;;;;;;;5.68;38.54;98779.34;6220267;22;20203;-77
2022/03/14 10:49:48;;;;;;;11.53;6.50;;;;;;;6.14;39.31;98803.34;6271773;22;20164;-78
2022/03/14 10:52:18;;;;;;;8.90;4.93;;;;;;;6.36;38.20;98807.66;6271715;22;20166;-78
2022/03/14 10:54:47;;;;;;;7.50;5.20;;;;;;;6.06;38.38;98757.97;6242879;22;20194;-79
2022/03/14 10:57:30;;;;;;;6.53;5.20;;;;;;;6.65;37.73;98794.75;6220014;22;20480;-78
2022/03/14 11:00:02;;;;;;;6.77;4.27;;;;;;;6.43;36.68;98775.03;6218954;22;20167;-82
2022/03/14 11:02:31;;;;;;;6.60;4.10;;;;;;;5.99;37.90;98785.38;6272313;22;20171;-79
2022/03/14 11:04:59;;;;;;;5.77;3.67;;;;;;;5.75;37.69;98775.03;6219330;22;20178;-78
2022/03/14 11:07:33;;;;;;;9.87;5.23;;;;;;;5.90;38.32;98764.78;6270872;22;20226;-77
2022/03/14 11:10:03;;;;;;;7.23;4.80;;;;;;;6.26;38.51;98775.09;6245788;22;20191;-82
2022/03/14 11:12:31;;;;;;;7.83;4.17;;;;;;;6.66;37.86;98790.47;6270001;22;20246;-79
2022/03/14 11:15:05;;;;;;;6.50;4.17;;;;;;;6.34;37.02;98790.50;6271526;22;20532;-82
2022/03/14 11:17:36;;;;;;;8.00;4.50;;;;;;;6.84;36.96;98793.81;6219261;22;20170;-77
2022/03/14 11:20:23;;;;;;;7.47;4.77;;;;;;;6.72;37.68;98793.84;6269565;22;20171;-79
2022/03/14 11:22:51;;;;;;;7.10;4.57;;;;;;;6.36;37.35;98739.91;6244292;22;20172;-79
2022/03/14 11:25:20;;;;;;;6.60;5.03;;;;;;;6.61;36.79;98745.84;6270332;22;20163;-79
2022/03/14 11:27:49;;;;;;;11.03;5.20;;;;;;;6.96;35.54;98770.63;6271810;22;20295;-87
2022/03/14 11:30:17;;;;;;;7.60;5.30;;;;;;;7.08;36.00;98743.94;6243007;22;20658;-84
2022/03/14 11:32:45;;;;;;;6.93;5.37;;;;;;;7.29;36.27;98736.13;6271403;22;20168;-81
2022/03/14 11:35:13;;;;;;;7.20;5.13;;;;;;;7.55;36.43;98767.72;6270490;22;20161;-79
2022/03/14 11:37:42;;;;;;;12.00;5.70;;;;;;;7.53;35.57;98732.50;6271392;22;20165;-78
2022/03/14 11:40:10;;;;;;;5.77;4.37;;;;;;;7.80;36.75;98771.88;6271524;22;20167;-81
2022/03/14 11:42:37;;;;;;;7.67;5.30;;;;;;;6.80;37.18;98737.22;6269932;22;20157;-86
2022/03/14 11:45:08;;;;;;;6.87;4.53;;;;;;;6.23;37.55;98738.19;6272644;22;20165;-81
2022/03/14 11:47:36;;;;;;;6.43;4.67;;;;;;;6.50;38.44;98759.59;6271658;22;20225;-79